Time;durP1;ratioP1;P1;durP2;ratioP2;P2;SDS_P1;SDS_P2;PMS_P1;PMS_P2;Temp;Humidity;BMP_temperature;BMP_pressure;BME280_temperature;BME280_humidity;BME280_pressure;Samples;Min_cycle;Max_cycle;Signal;HPM_P1;HPM_P2
2023/10/08 00:01:21;;;;;;;1.48;0.45;;;12.20;99.90;;;11.85;100.00;100578.56;4933775;29;20058;-83
2023/10/08 00:03:51;;;;;;;0.47;0.30;;;12.20;99.90;;;11.78;100.00;100591.47;4930160;29;20130;-84
2023/10/08 00:06:21;;;;;;;0.65;0.50;;;12.20;99.90;;;11.75;100.00;100594.66;4928147;29;20035;-85
2023/10/08 00:08:47;;;;;;;1.13;0.47;;;12.10;99.90;;;11.69;100.00;100593.66;4919177;29;20087;-83
2023/10/08 00:11:15;;;;;;;0.80;0.60;;;12.10;99.90;;;11.76;100.00;100604.50;4942440;29;20027;-82
2023/10/08 00:13:43;;;;;;;1.00;0.38;;;12.10;99.90;;;11.78;100.00;100599.66;4918878;29;20032;-83
2023/10/08 00:16:17;;;;;;;0.68;0.50;;;12.10;99.90;;;11.84;100.00;100611.59;4914160;29;20103;-82
2023/10/08 00:18:50;;;;;;;0.28;0.28;;;12.10;99.90;;;11.83;100.00;100604.47;4922038;29;20039;-83
2023/10/08 00:21:26;;;;;;;0.73;0.40;;;12.10;99.90;;;11.78;100.00;100599.66;4932377;29;20054;-83
2023/10/08 00:23:52;;;;;;;0.20;0.20;;;12.10;99.90;;;11.64;100.00;100596.22;4941319;29;20118;-85
2023/10/08 00:26:29;;;;;;;1.65;0.20;;;12.10;99.90;;;11.64;100.00;100593.50;4918678;29;20040;-83
2023/10/08 00:29:15;;;;;;;1.30;0.25;;;12.10;99.90;;;11.54;100.00;100583.06;4918492;29;20492;-84
2023/10/08 00:31:45;;;;;;;0.88;0.10;;;12.00;99.90;;;11.41;100.00;100583.22;4919305;29;20047;-83
2023/10/08 00:34:13;;;;;;;0.75;0.10;;;11.90;99.90;;;11.41;100.00;100575.03;4928030;29;20032;-82
2023/10/08 00:36:44;;;;;;;0.43;0.10;;;11.80;99.90;;;11.40;100.00;100593.28;4924605;29;20047;-85
2023/10/08 00:39:14;;;;;;;0.15;0.10;;;11.80;99.90;;;11.41;100.00;100602.34;4921745;29;20036;-84
2023/10/08 00:41:45;;;;;;;0.20;0.20;;;11.80;99.90;;;11.39;100.00;100601.69;4917988;29;20126;-84
2023/10/08 00:44:22;;;;;;;0.47;0.10;;;11.80;99.90;;;11.33;100.00;100617.91;4924284;29;20044;-85
2023/10/08 00:46:50;;;;;;;0.65;0.15;;;11.80;99.90;;;11.36;100.00;100622.94;4930196;29;20376;-85
2023/10/08 00:54:57;;;;;;;0.95;0.17;;;11.70;99.90;;;10.91;100.00;100685.84;4924975;29;20048;-83
2023/10/08 00:57:29;;;;;;;0.38;0.20;;;11.50;99.90;;;10.90;100.00;100673.25;4929213;29;20036;-85
2023/10/08 00:59:56;;;;;;;0.47;0.10;;;11.40;99.90;;;10.92;100.00;100682.88;4923570;29;20124;-84
2023/10/08 01:02:48;;;;;;;2.17;0.30;;;11.30;99.90;;;10.89;100.00;100627.91;4921952;29;20668;-83
2023/10/08 01:05:24;;;;;;;0.68;0.30;;;11.30;99.90;;;10.74;100.00;100629.03;4926175;29;20028;-82
2023/10/08 01:07:51;;;;;;;2.08;0.70;;;11.30;99.90;;;10.35;100.00;100644.50;4923226;29;20039;-82
2023/10/08 01:10:20;;;;;;;3.63;0.60;;;11.00;99.90;;;10.17;100.00;100661.53;4917981;29;20445;-81
2023/10/08 01:13:22;;;;;;;3.17;0.82;;;10.80;99.90;;;10.04;100.00;100673.31;4922923;29;20043;-83
2023/10/08 01:15:44;;;;;;;6.90;1.13;;;10.60;99.90;;;9.96;100.00;100730.78;4925969;29;20082;-84
2023/10/08 01:18:18;;;;;;;7.10;0.75;;;10.40;99.90;;;9.76;100.00;100776.06;4929570;29;20044;-83
2023/10/08 01:23:13;;;;;;;3.30;0.80;;;10.20;99.90;;;9.82;100.00;100809.81;4937800;29;20127;-84
2023/10/08 01:25:41;;;;;;;5.28;0.88;;;10.20;99.90;;;9.83;100.00;100830.56;4930027;29;20114;-84
2023/10/08 01:28:28;;;;;;;5.82;1.17;;;10.30;99.90;;;9.89;100.00;100853.41;4930490;29;20036;-85
2023/10/08 01:31:00;;;;;;;4.35;0.80;;;10.20;99.90;;;9.92;100.00;100881.09;4928138;29;20039;-86
2023/10/08 01:33:27;;;;;;;4.28;1.10;;;10.20;99.90;;;10.03;100.00;100903.31;4917655;29;20053;-85
2023/10/08 01:35:54;;;;;;;3.60;1.00;;;10.30;99.90;;;10.09;100.00;100929.78;4923704;29;20481;-85
2023/10/08 01:38:23;;;;;;;8.13;1.33;;;10.30;99.90;;;10.12;100.00;100937.53;4925419;29;20050;-86
2023/10/08 01:40:52;;;;;;;4.53;1.02;;;10.30;99.90;;;10.07;100.00;100923.66;4930598;29;20043;-87
2023/10/08 01:43:20;;;;;;;5.38;1.00;;;10.30;99.90;;;10.18;100.00;100944.88;4917949;29;20067;-87
2023/10/08 01:45:51;;;;;;;5.95;1.08;;;10.30;99.90;;;10.15;100.00;100926.22;4917562;29;20035;-87
2023/10/08 01:48:20;;;;;;;4.68;1.27;;;10.30;99.90;;;10.22;100.00;100920.78;4925302;29;20048;-86
2023/10/08 01:50:47;;;;;;;7.22;1.20;;;10.30;99.90;;;10.22;100.00;100926.22;4927897;29;20044;-86
2023/10/08 01:53:16;;;;;;;8.50;1.75;;;10.40;99.90;;;10.22;100.00;100932.50;4933485;29;20043;-86
2023/10/08 01:55:47;;;;;;;7.45;1.80;;;10.40;99.90;;;10.20;100.00;100939.19;4929788;29;20047;-87
2023/10/08 01:58:18;;;;;;;4.18;1.10;;;10.40;99.90;;;10.27;100.00;100937.34;4906930;29;20039;-87
2023/10/08 02:00:48;;;;;;;8.75;1.63;;;10.40;99.90;;;10.32;100.00;100913.00;4931810;29;20047;-86
2023/10/08 02:03:17;;;;;;;8.13;1.40;;;10.40;99.90;;;10.30;100.00;100919.72;4930222;29;20044;-86
2023/10/08 02:05:47;;;;;;;5.10;1.02;;;10.50;99.90;;;10.34;100.00;100935.47;4926038;29;20094;-83
2023/10/08 02:08:16;;;;;;;8.38;1.33;;;10.40;99.90;;;10.36;100.00;100908.00;4914758;29;20134;-83
2023/10/08 02:10:43;;;;;;;4.20;1.35;;;10.50;99.90;;;10.36;100.00;100908.00;4923722;29;20098;-83
2023/10/08 02:13:10;;;;;;;6.67;1.40;;;10.50;99.90;;;10.36;100.00;100918.91;4921068;29;20043;-84
2023/10/08 02:15:40;;;;;;;5.90;1.40;;;10.50;99.90;;;10.35;100.00;100907.13;4915281;29;20295;-84
2023/10/08 02:18:06;;;;;;;6.28;1.27;;;10.50;99.90;;;10.29;100.00;100897.06;4920171;29;20119;-85
2023/10/08 02:20:32;;;;;;;4.45;1.38;;;10.50;99.90;;;10.38;100.00;100891.41;4922599;29;20188;-85
2023/10/08 02:22:59;;;;;;;3.00;1.00;;;10.50;99.90;;;10.38;100.00;100900.44;4935345;29;20132;-85
2023/10/08 02:25:26;;;;;;;6.20;1.30;;;10.50;99.90;;;10.40;100.00;100882.00;4939535;29;20090;-84
2023/10/08 02:27:52;;;;;;;5.45;1.30;;;10.50;99.90;;;10.42;100.00;100873.59;4925108;29;20044;-85
2023/10/08 02:30:18;;;;;;;8.77;1.20;;;10.50;99.90;;;10.41;100.00;100870.03;4925385;29;20114;-85
2023/10/08 02:32:46;;;;;;;5.57;1.15;;;10.60;99.90;;;10.44;100.00;100860.59;4925427;29;20549;-86
2023/10/08 02:35:12;;;;;;;5.07;1.00;;;10.60;99.90;;;10.45;100.00;100857.66;4917499;29;20122;-85
2023/10/08 02:37:40;;;;;;;6.05;1.10;;;10.60;99.90;;;10.42;100.00;100858.09;4925762;29;20046;-85
2023/10/08 02:40:30;;;;;;;6.75;1.65;;;10.60;99.90;;;10.44;100.00;100861.44;4919577;29;20040;-85
2023/10/08 02:43:00;;;;;;;4.97;0.95;;;10.50;99.90;;;10.42;100.00;100865.41;4921357;29;20035;-86
2023/10/08 02:45:28;;;;;;;8.80;1.25;;;10.60;99.90;;;10.42;100.00;100857.22;4921099;29;20073;-85
2023/10/08 02:47:55;;;;;;;11.23;1.40;;;10.50;99.90;;;10.38;100.00;100839.59;4916542;29;20039;-86
2023/10/08 02:50:22;;;;;;;5.13;1.10;;;10.50;99.90;;;10.40;100.00;100845.66;4921881;29;20076;-85
2023/10/08 02:52:51;;;;;;;5.63;1.20;;;10.50;99.90;;;10.41;100.00;100850.09;4928001;29;20110;-85
2023/10/08 02:55:34;;;;;;;6.43;1.20;;;10.60;99.90;;;10.37;100.00;100833.31;4923124;29;20047;-85
2023/10/08 02:58:03;;;;;;;6.53;1.25;;;10.50;99.90;;;10.36;100.00;100837.91;4927974;29;20034;-84
2023/10/08 03:00:29;;;;;;;5.32;1.20;;;10.60;99.90;;;10.41;100.00;100850.94;4923917;29;20046;-86
2023/10/08 03:02:58;;;;;;;4.72;1.38;;;10.60;99.90;;;10.39;100.00;100853.03;4923594;29;20046;-85
2023/10/08 03:05:29;;;;;;;4.82;1.35;;;10.50;99.90;;;10.40;100.00;100862.91;4917256;29;20104;-84
2023/10/08 03:07:57;;;;;;;3.95;1.10;;;10.60;99.90;;;10.38;100.00;100845.91;4924411;29;20036;-86
2023/10/08 03:10:32;;;;;;;2.90;1.00;;;10.60;99.90;;;10.36;100.00;100837.09;4936674;29;20046;-87
2023/10/08 03:13:04;;;;;;;5.07;1.10;;;10.60;99.90;;;10.45;100.00;100818.63;4922330;29;20032;-87
2023/10/08 03:15:31;;;;;;;4.13;1.10;;;10.60;99.90;;;10.47;100.00;100824.69;4936768;29;20531;-86
2023/10/08 03:18:09;;;;;;;4.63;1.00;;;10.60;99.90;;;10.46;100.00;100821.16;4926372;29;20113;-86
2023/10/08 03:20:41;;;;;;;6.43;1.02;;;10.60;99.90;;;10.48;100.00;100821.78;4921168;29;20051;-86
2023/10/08 03:23:25;;;;;;;7.82;1.40;;;10.60;99.90;;;10.52;100.00;100830.38;4931284;29;20043;-85
2023/10/08 03:26:11;;;;;;;5.18;0.98;;;10.60;99.90;;;10.47;100.00;100833.75;4921701;29;20029;-86
2023/10/08 03:28:41;;;;;;;5.07;1.25;;;10.60;99.90;;;10.56;100.00;100858.06;4910210;29;20338;-87
2023/10/08 03:31:15;;;;;;;7.60;1.48;;;10.60;99.90;;;10.56;100.00;100869.81;4924181;29;20040;-86
2023/10/08 03:33:43;;;;;;;2.40;0.98;;;10.60;99.90;;;10.57;100.00;100887.00;4915638;29;20075;-87
2023/10/08 03:36:10;;;;;;;6.30;1.70;;;10.60;99.90;;;10.50;100.00;100896.06;4930206;29;20095;-86
2023/10/08 03:38:50;;;;;;;4.80;1.13;;;10.60;99.90;;;10.53;100.00;100880.31;4915919;29;20107;-85
2023/10/08 03:41:30;;;;;;;5.28;1.17;;;10.70;99.90;;;10.60;100.00;100895.63;4922355;29;20056;-84
2023/10/08 03:44:12;;;;;;;4.40;1.10;;;10.70;99.90;;;10.57;100.00;100885.13;4915322;29;20099;-84
2023/10/08 03:46:42;;;;;;;4.22;1.10;;;10.70;99.90;;;10.60;100.00;100898.34;4916572;29;20104;-85
2023/10/08 03:51:44;;;;;;;6.30;1.38;;;10.60;99.90;;;10.62;100.00;100895.44;4921394;29;20107;-84
2023/10/08 03:54:16;;;;;;;4.40;1.00;;;10.60;99.90;;;10.52;100.00;100874.03;4926469;29;20036;-86
2023/10/08 03:56:48;;;;;;;5.25;1.20;;;10.70;99.90;;;10.61;100.00;100896.47;4930695;29;20042;-83
2023/10/08 03:59:30;;;;;;;5.03;1.10;;;10.60;99.90;;;10.60;100.00;100906.53;4932120;29;20066;-85
2023/10/08 04:02:46;;;;;;;8.38;1.30;;;10.60;99.90;;;10.65;100.00;100917.66;4926683;29;20043;-85
2023/10/08 04:04:51;;;;;;;3.75;1.27;;;10.70;99.90;;;10.60;100.00;100900.22;4915513;29;20135;-86
2023/10/08 04:07:28;;;;;;;7.30;1.55;;;10.70;99.90;;;10.65;100.00;100905.91;4917427;29;20040;-86
2023/10/08 04:10:20;;;;;;;4.75;1.60;;;10.70;99.90;;;10.66;100.00;100915.78;4923357;29;20063;-86
2023/10/08 04:12:44;;;;;;;3.60;1.30;;;10.70;99.90;;;10.69;100.00;100917.22;4929216;29;20067;-86
2023/10/08 04:15:12;;;;;;;8.85;1.40;;;10.70;99.90;;;10.70;100.00;100924.38;4935168;29;20431;-86
2023/10/08 04:17:43;;;;;;;11.82;1.77;;;10.70;99.90;;;10.68;100.00;100927.31;4927056;29;20040;-86
2023/10/08 04:23:21;;;;;;;7.68;1.60;;;10.70;99.90;;;10.74;100.00;100936.53;4875782;29;20446;-85
2023/10/08 04:25:53;;;;;;;6.40;1.50;;;10.80;99.90;;;10.70;100.00;100933.41;4857303;29;20052;-84
2023/10/08 04:28:21;;;;;;;7.45;1.70;;;10.70;99.90;;;10.70;100.00;100946.19;4882089;29;20039;-87
2023/10/08 04:30:48;;;;;;;5.65;1.67;;;10.80;99.90;;;10.70;100.00;100925.22;4929377;29;20066;-85
2023/10/08 04:33:14;;;;;;;9.75;2.60;;;10.80;99.90;;;10.77;100.00;100938.88;4922067;29;20644;-86
2023/10/08 04:36:07;;;;;;;5.75;1.55;;;10.80;99.90;;;10.78;100.00;100933.19;4928332;29;20036;-86
2023/10/08 04:38:36;;;;;;;7.80;1.67;;;10.80;99.90;;;10.74;100.00;100931.94;4933672;29;20062;-85
2023/10/08 04:41:08;;;;;;;6.38;1.45;;;10.80;99.90;;;10.74;100.00;100926.47;4925852;29;20066;-86
2023/10/08 04:43:37;;;;;;;8.35;1.55;;;10.80;99.90;;;10.75;100.00;100933.59;4929035;29;20392;-86
2023/10/08 04:46:21;;;;;;;6.78;1.63;;;10.80;99.90;;;10.72;100.00;100944.09;4937534;29;20138;-86
2023/10/08 04:48:55;;;;;;;5.75;1.52;;;10.70;99.90;;;10.67;100.00;100947.47;4929771;29;20043;-85
2023/10/08 04:51:22;;;;;;;5.38;1.45;;;10.70;99.90;;;10.61;100.00;100959.22;4927749;29;20050;-86
2023/10/08 04:53:48;;;;;;;9.70;1.80;;;10.60;99.90;;;10.55;100.00;100954.59;4929130;29;20048;-86
2023/10/08 04:56:17;;;;;;;8.88;1.70;;;10.60;99.90;;;10.56;100.00;100957.13;4924350;29;20068;-85
2023/10/08 04:58:46;;;;;;;6.93;1.95;;;10.60;99.90;;;10.57;100.00;100961.53;4937951;29;20335;-86
2023/10/08 05:01:38;;;;;;;8.55;1.50;;;10.60;99.90;;;10.42;100.00;100967.19;4934083;29;20089;-88
2023/10/08 05:17:09;;;;;;;6.88;1.40;;;10.60;99.90;;;10.52;100.00;100955.00;4924657;29;20040;-88
2023/10/08 05:25:10;;;;;;;5.30;1.23;;;10.60;99.90;;;10.60;100.00;100993.84;4931343;29;20081;-87
2023/10/08 05:30:28;;;;;;;6.72;1.48;;;10.60;99.90;;;10.64;100.00;101019.66;4919399;29;20520;-87
2023/10/08 05:33:24;;;;;;;7.85;1.35;;;10.60;99.90;;;10.67;100.00;101007.50;4939232;29;20044;-87
2023/10/08 05:36:02;;;;;;;5.63;1.60;;;10.60;99.90;;;10.72;100.00;101007.72;4925031;29;20032;-87
2023/10/08 05:38:38;;;;;;;3.20;1.50;;;10.70;99.90;;;10.75;100.00;101011.91;4925122;29;20511;-87
2023/10/08 05:41:05;;;;;;;4.53;1.50;;;10.60;99.90;;;10.72;100.00;101026.81;4918412;29;20040;-87
2023/10/08 05:49:03;;;;;;;5.90;2.20;;;10.60;99.90;;;10.72;100.00;101048.63;4937964;29;20041;-82
2023/10/08 05:57:24;;;;;;;5.40;2.05;;;10.80;99.90;;;10.73;100.00;101033.94;4921498;29;20442;-82
2023/10/08 06:07:56;;;;;;;6.95;1.70;;;10.80;99.90;;;10.74;100.00;101057.47;4917244;29;20042;-83
2023/10/08 06:13:06;;;;;;;8.80;1.95;;;10.80;99.90;;;10.88;100.00;101058.31;4920552;29;20044;-82
2023/10/08 06:15:49;;;;;;;8.25;2.00;;;10.80;99.90;;;10.99;100.00;101065.03;4928773;29;20075;-87
2023/10/08 06:18:19;;;;;;;7.22;2.47;;;10.90;99.90;;;10.99;100.00;101064.19;4932524;29;20058;-86
2023/10/08 06:20:46;;;;;;;5.80;2.35;;;10.90;99.90;;;11.07;100.00;101073.00;4932683;29;20499;-86
2023/10/08 06:23:18;;;;;;;12.70;2.10;;;11.00;99.90;;;10.93;100.00;101087.72;4932237;29;20155;-82
2023/10/08 06:25:54;;;;;;;7.32;2.00;;;11.00;99.90;;;11.03;100.00;101092.78;4932968;29;20036;-86
2023/10/08 06:28:20;;;;;;;7.70;1.92;;;11.10;99.90;;;10.97;100.00;101094.44;4926419;29;20526;-87
2023/10/08 06:30:48;;;;;;;10.10;2.28;;;11.00;99.90;;;11.21;100.00;101108.53;4925900;29;20040;-86
2023/10/08 06:33:16;;;;;;;7.50;2.10;;;11.10;99.90;;;11.29;100.00;101100.13;4915738;29;20090;-86
2023/10/08 06:35:56;;;;;;;12.10;2.55;;;11.10;99.90;;;11.22;100.00;101121.13;4926200;29;20465;-85
2023/10/08 06:38:24;;;;;;;8.90;2.28;;;11.20;99.90;;;11.25;100.00;101139.84;4917580;29;20028;-86
2023/10/08 06:40:52;;;;;;;8.55;2.30;;;11.20;99.90;;;11.25;100.00;101152.63;4927079;29;20047;-86
2023/10/08 06:43:21;;;;;;;8.15;2.15;;;11.20;99.90;;;11.26;100.00;101144.25;4919013;29;20068;-86
2023/10/08 06:45:52;;;;;;;4.82;1.83;;;11.20;99.90;;;11.40;100.00;101134.16;4918952;29;20036;-86
2023/10/08 06:48:23;;;;;;;8.63;2.30;;;11.30;99.90;;;11.21;100.00;101154.97;4926733;29;20071;-86
2023/10/08 06:50:51;;;;;;;6.75;2.45;;;11.30;99.90;;;11.45;100.00;101171.78;4926163;29;20043;-85
2023/10/08 06:53:18;;;;;;;6.95;2.40;;;11.40;99.90;;;11.52;100.00;101205.41;4930825;29;20040;-86
2023/10/08 06:55:45;;;;;;;9.60;2.42;;;11.40;99.90;;;11.58;100.00;101215.50;4923457;29;20529;-88
2023/10/08 06:58:14;;;;;;;9.47;2.90;;;11.50;99.90;;;11.50;100.00;101237.56;4926171;29;20408;-83
2023/10/08 07:00:46;;;;;;;7.95;2.42;;;11.60;99.90;;;11.41;100.00;101245.13;4916328;29;20043;-88
2023/10/08 07:03:17;;;;;;;8.73;2.30;;;11.60;99.90;;;11.43;100.00;101278.53;4918987;29;20043;-84
2023/10/08 07:05:57;;;;;;;8.48;2.50;;;11.70;99.90;;;11.43;100.00;101305.84;4925938;29;20039;-88
2023/10/08 07:08:33;;;;;;;9.00;2.17;;;11.70;99.90;;;11.49;100.00;101315.13;4928202;29;20040;-86
2023/10/08 07:11:01;;;;;;;6.40;2.15;;;11.80;99.90;;;11.42;100.00;101303.34;4950372;29;20044;-88
2023/10/08 07:13:29;;;;;;;10.90;3.72;;;11.70;99.90;;;11.42;100.00;101319.72;4919379;29;20396;-92
2023/10/08 07:15:56;;;;;;;7.00;2.50;;;11.70;99.90;;;11.36;100.00;101322.22;4929497;29;20130;-90
2023/10/08 07:18:25;;;;;;;6.88;2.50;;;11.70;99.90;;;11.31;100.00;101351.22;4921227;29;20044;-90
2023/10/08 07:21:00;;;;;;;6.03;2.03;;;11.70;99.90;;;11.59;100.00;101347.53;4934118;29;20051;-86
2023/10/08 07:23:34;;;;;;;7.88;2.25;;;11.70;99.90;;;11.74;100.00;101364.56;4922525;29;20044;-84
2023/10/08 07:26:13;;;;;;;8.95;2.35;;;11.80;99.90;;;12.01;100.00;101389.25;4930358;29;20478;-86
2023/10/08 07:28:41;;;;;;;7.47;2.78;;;12.00;99.90;;;12.40;100.00;101421.50;4925153;29;20051;-80
2023/10/08 07:31:21;;;;;;;8.32;2.38;;;12.30;99.90;;;12.33;100.00;101446.97;4926401;29;20061;-85
2023/10/08 07:36:53;;;;;;;7.40;2.50;;;12.50;99.90;;;12.23;100.00;101472.00;4917550;29;20032;-83
2023/10/08 07:41:58;;;;;;;8.30;2.47;;;12.50;99.90;;;12.49;100.00;101508.66;4924469;29;20086;-81
2023/10/08 07:44:29;;;;;;;8.15;2.60;;;12.50;99.90;;;12.27;100.00;101529.03;4921161;29;20089;-83
2023/10/08 07:46:57;;;;;;;8.13;2.08;;;12.50;99.90;;;12.28;100.00;101560.81;4911673;29;20062;-82
2023/10/08 07:49:29;;;;;;;6.28;2.03;;;12.50;99.90;;;12.57;100.00;101570.53;4917718;29;20039;-82
2023/10/08 07:51:58;;;;;;;6.72;2.50;;;12.50;99.90;;;12.82;100.00;101596.50;4921463;29;22144;-81
2023/10/08 07:54:28;;;;;;;11.45;1.92;;;12.70;99.90;;;12.74;100.00;101633.97;4916442;29;20119;-81
2023/10/08 07:57:12;;;;;;;7.28;1.80;;;12.70;99.90;;;12.73;100.00;101647.88;4927017;29;20115;-81
2023/10/08 07:59:46;;;;;;;8.23;1.88;;;12.90;99.90;;;12.64;100.00;101658.16;4923841;29;20040;-81
2023/10/08 08:02:13;;;;;;;5.18;2.05;;;13.00;99.90;;;12.91;100.00;101650.84;4928298;29;20033;-83
2023/10/08 08:04:40;;;;;;;5.50;2.08;;;13.20;99.90;;;12.93;100.00;101662.44;4918766;29;20096;-82
2023/10/08 08:07:07;;;;;;;6.85;1.80;;;13.20;99.90;;;12.81;100.00;101672.31;4919442;29;20031;-83
2023/10/08 08:09:37;;;;;;;7.20;1.70;;;13.30;99.90;;;13.20;100.00;101686.28;4927170;29;20091;-84
2023/10/08 08:12:10;;;;;;;6.78;2.15;;;13.40;99.90;;;13.12;100.00;101703.75;4925367;29;20048;-85
2023/10/08 08:14:38;;;;;;;7.05;1.85;;;13.50;99.90;;;13.14;100.00;101701.69;4938769;29;20077;-84
2023/10/08 08:17:13;;;;;;;8.25;2.35;;;13.50;99.90;;;12.87;100.00;101719.94;4922821;29;20862;-81
2023/10/08 08:19:40;;;;;;;8.05;1.77;;;13.40;99.90;;;12.97;100.00;101722.28;4925916;29;20031;-83
2023/10/08 08:22:06;;;;;;;8.27;1.95;;;13.40;99.90;;;13.06;100.00;101719.16;4924896;29;20123;-85
2023/10/08 08:24:35;;;;;;;5.57;1.65;;;13.50;99.90;;;13.19;100.00;101747.63;4925644;29;20078;-84
2023/10/08 08:27:11;;;;;;;5.93;2.00;;;13.50;99.90;;;13.06;100.00;101762.97;4928691;29;20048;-86
2023/10/08 08:29:46;;;;;;;8.20;2.83;;;13.70;99.90;;;13.21;100.00;101773.78;4924341;29;20138;-85
2023/10/08 08:32:15;;;;;;;9.30;2.10;;;13.60;99.90;;;13.35;100.00;101760.94;4932655;29;20502;-84
2023/10/08 08:34:43;;;;;;;8.90;1.70;;;13.80;99.90;;;13.53;100.00;101762.28;4926246;29;20036;-82
2023/10/08 08:37:11;;;;;;;5.40;1.58;;;13.90;99.90;;;13.61;100.00;101781.25;4928426;29;20036;-81
2023/10/08 08:39:38;;;;;;;;;;;13.90;99.90;;;13.42;100.00;101776.53;4935506;29;20067;-82
2023/10/08 08:42:05;;;;;;;6.75;1.52;;;13.90;99.90;;;13.49;100.00;101777.41;4939686;29;19919;-84
2023/10/08 08:44:39;;;;;;;8.77;1.95;;;13.90;99.90;;;13.71;100.00;101779.97;4923162;29;20036;-85
2023/10/08 08:47:06;;;;;;;4.90;1.77;;;14.10;99.90;;;13.73;100.00;101770.50;4927239;29;20095;-85
2023/10/08 08:49:37;;;;;;;5.88;1.90;;;14.20;99.90;;;14.01;100.00;101782.28;4936673;29;20092;-82
2023/10/08 08:52:04;;;;;;;5.45;1.50;;;14.40;99.90;;;13.87;100.00;101787.81;4935980;29;20165;-84
2023/10/08 08:54:32;;;;;;;10.43;1.40;;;14.40;99.90;;;13.96;100.00;101793.91;4922739;29;20048;-87
2023/10/08 08:57:08;;;;;;;5.53;1.58;;;14.40;99.90;;;14.07;100.00;101801.50;4933372;29;20039;-87
2023/10/08 08:59:36;;;;;;;6.25;1.60;;;14.50;99.90;;;14.48;100.00;101807.78;4929308;29;20034;-86
2023/10/08 09:02:04;;;;;;;6.20;1.60;;;14.70;99.90;;;14.61;100.00;101806.06;4923250;29;20043;-85
2023/10/08 09:04:32;;;;;;;6.75;2.50;;;15.00;99.90;;;13.86;100.00;101810.81;4926665;29;20068;-89
2023/10/08 09:07:04;;;;;;;6.15;1.58;;;14.80;99.90;;;14.72;100.00;101807.31;4920468;29;20491;-83
2023/10/08 09:09:39;;;;;;;5.20;1.77;;;14.90;99.90;;;14.57;100.00;101813.88;4924281;29;20132;-86
2023/10/08 09:12:08;;;;;;;8.10;1.60;;;15.00;99.90;;;14.60;100.00;101829.09;4925283;29;20039;-81
2023/10/08 09:14:36;;;;;;;7.35;1.60;;;15.00;99.90;;;14.00;100.00;101832.72;4934037;29;20040;-83
2023/10/08 09:17:04;;;;;;;9.88;1.90;;;14.80;99.90;;;14.27;100.00;101835.47;4924551;29;20047;-83
2023/10/08 09:19:36;;;;;;;4.80;1.50;;;14.60;99.90;;;14.64;100.00;101842.16;4922441;29;20032;-83
2023/10/08 09:22:07;;;;;;;6.18;1.63;;;14.80;99.90;;;14.15;100.00;101844.34;4922197;29;20492;-82
2023/10/08 09:24:42;;;;;;;4.80;1.75;;;14.70;99.90;;;14.64;100.00;101833.09;4918961;29;20040;-83
2023/10/08 09:27:15;;;;;;;7.45;1.85;;;14.80;99.90;;;14.79;100.00;101847.44;4918921;29;20040;-83
2023/10/08 09:29:42;;;;;;;7.32;2.08;;;15.10;99.90;;;14.67;100.00;101838.97;4923714;29;20040;-82
2023/10/08 09:32:33;;;;;;;7.05;1.50;;;15.20;99.90;;;15.10;100.00;101837.59;4923409;29;20613;-84
2023/10/08 09:35:00;;;;;;;5.32;1.40;;;15.40;99.90;;;15.73;100.00;101846.13;4921870;29;20076;-87
2023/10/08 09:37:27;;;;;;;5.90;1.45;;;16.00;99.90;;;15.66;100.00;101842.59;4918130;29;20040;-82
2023/10/08 09:39:56;;;;;;;6.07;1.65;;;16.40;99.90;;;16.21;100.00;101835.63;4931582;29;20038;-82
2023/10/08 09:42:24;;;;;;;5.88;1.50;;;17.00;99.90;;;16.62;100.00;101827.78;4925835;29;20097;-84
2023/10/08 09:44:50;;;;;;;5.55;1.50;;;17.90;99.90;;;16.55;100.00;101841.63;4929757;29;20043;-84
2023/10/08 09:47:24;;;;;;;7.05;1.30;;;18.70;97.00;;;17.14;100.00;101846.72;4918216;29;20388;-84
2023/10/08 09:50:11;;;;;;;7.32;1.30;;;;;;;18.36;100.00;101842.97;4924839;29;20032;-81
2023/10/08 09:52:48;;;;;;;4.78;1.10;;;;;;;19.55;98.31;101849.09;4918577;29;20036;-82
2023/10/08 09:55:18;;;;;;;4.25;1.10;;;;;;;19.10;83.20;101838.78;4932218;29;20047;-83
2023/10/08 09:57:45;;;;;;;5.57;1.23;;;;;;;18.45;84.43;101827.72;4920612;29;20123;-82
2023/10/08 10:00:18;;;;;;;;;;;;;;;18.71;80.21;101831.03;4918272;29;20071;-83
2023/10/08 10:02:46;;;;;;;10.15;1.63;;;;;;;19.25;74.10;101828.06;4930720;29;19923;-83
2023/10/08 10:05:18;;;;;;;5.95;1.23;;;;;;;19.68;73.53;101836.84;4917697;29;20047;-83
2023/10/08 10:07:47;;;;;;;5.38;1.20;;;;;;;20.07;67.33;101832.53;4917071;29;20052;-87
2023/10/08 10:10:27;;;;;;;4.18;1.17;;;;;;;21.04;65.42;101829.47;4927070;29;20127;-84
2023/10/08 10:12:56;;;;;;;4.13;1.42;;;;;;;23.52;52.52;101812.81;4918665;29;20080;-84
2023/10/08 10:15:23;;;;;;;6.45;1.20;;;;;;;24.51;46.75;101799.66;4921824;29;20043;-82
2023/10/08 10:17:49;;;;;;;6.32;1.15;;;;;;;24.79;46.89;101800.97;4924676;29;20028;-82
2023/10/08 10:20:16;;;;;;;5.25;1.20;;;;;;;25.85;44.14;101798.06;4919350;29;20127;-83
2023/10/08 10:22:44;;;;;;;7.47;1.20;;;;;;;26.88;46.33;101820.50;4930658;29;20044;-82
2023/10/08 10:25:19;;;;;;;;;;;;;;;26.49;40.48;101795.19;4920251;29;20040;-82
2023/10/08 10:27:54;;;;;;;5.80;1.27;;;;;;;20.72;51.53;101805.22;4938547;29;20009;-83
2023/10/08 10:30:20;;;;;;;7.28;1.30;;;;;;;21.61;55.98;101834.78;4922183;29;20064;-81
2023/10/08 10:32:46;;;;;;;6.70;1.75;;;;;;;20.30;60.27;101847.28;4930627;29;20042;-83
2023/10/08 10:35:18;;;;;;;6.28;1.15;;;;;;;19.24;59.85;101858.72;4923617;29;20119;-85
2023/10/08 10:37:51;;;;;;;5.32;1.40;;;;;;;19.57;59.18;101872.91;4932929;29;20040;-81
2023/10/08 10:40:40;;;;;;;4.50;1.10;;;;;;;20.38;54.34;101861.56;4930804;29;20067;-83
2023/10/08 10:43:09;;;;;;;6.43;1.50;;;;;;;19.43;56.96;101851.03;4916262;29;20056;-82
2023/10/08 10:45:46;;;;;;;6.50;1.77;;;;;;;20.54;54.76;101853.47;4922992;29;20040;-82
2023/10/08 10:48:22;;;;;;;6.43;1.20;;;;;;;23.53;46.01;101834.84;4928843;29;20035;-82
2023/10/08 10:53:56;;;;;;;4.93;1.40;;;;;;;26.31;40.09;101837.94;4936900;29;20051;-81
2023/10/08 10:56:29;;;;;;;4.30;1.10;;;;;;;27.42;36.57;101815.53;4927151;29;20046;-81
2023/10/08 10:59:00;;;;;;;5.30;1.30;;;;;;;29.08;35.80;101821.75;4942702;29;20038;-81
2023/10/08 11:01:29;;;;;;;5.70;1.52;;;;;;;28.99;35.45;101820.84;4916774;29;20061;-82
2023/10/08 11:03:57;;;;;;;4.72;1.27;;;;;;;26.38;35.85;101804.84;4931197;29;20043;-83
2023/10/08 11:06:25;;;;;;;6.38;1.20;;;;;;;25.05;37.32;101798.06;4927151;29;20495;-83
2023/10/08 11:08:52;;;;;;;8.38;1.30;;;;;;;23.04;42.44;101824.94;4922587;29;20400;-82
2023/10/08 11:11:27;;;;;;;4.18;1.10;;;;;;;20.77;47.54;101852.41;4922980;29;20046;-82
2023/10/08 11:14:00;;;;;;;5.60;1.13;;;;;;;19.97;52.08;101845.13;4941372;29;20099;-81
2023/10/08 11:16:26;;;;;;;3.45;1.30;;;;;;;19.67;58.32;101865.63;4916329;29;20047;-82
2023/10/08 11:18:57;;;;;;;5.35;1.35;;;;;;;19.64;55.57;101845.91;4922259;29;20118;-82
2023/10/08 11:21:25;;;;;;;4.72;1.17;;;;;;;20.08;55.21;101862.75;4926179;29;20031;-81
2023/10/08 11:23:53;;;;;;;4.78;1.33;;;;;;;21.13;52.18;101850.09;4919465;29;20043;-81
2023/10/08 11:26:21;;;;;;;6.55;1.70;;;;;;;23.41;49.84;101842.59;4919326;29;20043;-82
2023/10/08 11:28:47;;;;;;;4.22;1.20;;;;;;;24.31;43.04;101781.88;4929139;29;20075;-81
2023/10/08 11:31:19;;;;;;;4.63;1.10;;;;;;;23.87;41.31;101780.53;4931770;29;20160;-82
2023/10/08 11:33:53;;;;;;;5.25;1.40;;;;;;;24.25;43.02;101825.66;4927300;29;20495;-82
2023/10/08 11:36:32;;;;;;;4.25;1.17;;;;;;;23.83;40.08;101808.09;4921365;29;20047;-82
2023/10/08 11:39:08;;;;;;;;;;;;;;;22.16;44.35;101840.31;4917103;29;20056;-82
2023/10/08 11:41:49;;;;;;;5.43;1.30;;;;;;;23.16;42.22;101855.28;4917153;29;19918;-82
2023/10/08 11:44:19;;;;;;;4.07;1.20;;;;;;;25.77;37.61;101824.69;4923021;29;20421;-80